sensor_id;sensor_type;location;lat;lon;timestamp;P1;durP1;ratioP1;P2;durP2;ratioP2
33413;SDS011;60055;41.884;12.534;2023-05-20T00:00:30;14.70;;;4.70;;
33413;SDS011;60055;41.884;12.534;2023-05-20T00:02:55;10.00;;;4.40;;
33413;SDS011;60055;41.884;12.534;2023-05-20T00:05:21;14.77;;;4.70;;
33413;SDS011;60055;41.884;12.534;2023-05-20T00:07:47;12.40;;;4.20;;
33413;SDS011;60055;41.884;12.534;2023-05-20T00:10:13;14.05;;;4.47;;
33413;SDS011;60055;41.884;12.534;2023-05-20T00:12:38;18.85;;;4.20;;
33413;SDS011;60055;41.884;12.534;2023-05-20T00:15:04;13.70;;;4.20;;
33413;SDS011;60055;41.884;12.534;2023-05-20T00:17:30;12.38;;;4.70;;
33413;SDS011;60055;41.884;12.534;2023-05-20T00:19:56;12.23;;;4.32;;
33413;SDS011;60055;41.884;12.534;2023-05-20T00:22:21;14.95;;;4.72;;
33413;SDS011;60055;41.884;12.534;2023-05-20T00:24:53;11.93;;;4.80;;
33413;SDS011;60055;41.884;12.534;2023-05-20T00:27:19;13.20;;;4.55;;
33413;SDS011;60055;41.884;12.534;2023-05-20T00:29:44;15.65;;;4.57;;
33413;SDS011;60055;41.884;12.534;2023-05-20T00:32:10;14.25;;;4.75;;
33413;SDS011;60055;41.884;12.534;2023-05-20T00:34:35;14.52;;;5.20;;
33413;SDS011;60055;41.884;12.534;2023-05-20T00:37:01;17.30;;;4.45;;
33413;SDS011;60055;41.884;12.534;2023-05-20T00:39:26;12.73;;;4.68;;
33413;SDS011;60055;41.884;12.534;2023-05-20T00:41:54;10.25;;;4.53;;
33413;SDS011;60055;41.884;12.534;2023-05-20T00:44:20;12.18;;;5.03;;
33413;SDS011;60055;41.884;12.534;2023-05-20T00:46:48;13.00;;;4.97;;
33413;SDS011;60055;41.884;12.534;2023-05-20T00:49:14;13.65;;;4.78;;
33413;SDS011;60055;41.884;12.534;2023-05-20T00:51:43;17.58;;;4.30;;
33413;SDS011;60055;41.884;12.534;2023-05-20T00:54:11;13.57;;;4.65;;
33413;SDS011;60055;41.884;12.534;2023-05-20T00:56:37;13.90;;;4.88;;
33413;SDS011;60055;41.884;12.534;2023-05-20T00:59:03;17.23;;;5.40;;
33413;SDS011;60055;41.884;12.534;2023-05-20T01:01:29;13.35;;;4.50;;
33413;SDS011;60055;41.884;12.534;2023-05-20T01:03:55;16.38;;;4.97;;
33413;SDS011;60055;41.884;12.534;2023-05-20T01:06:20;12.05;;;4.47;;
33413;SDS011;60055;41.884;12.534;2023-05-20T01:08:46;12.93;;;4.55;;
33413;SDS011;60055;41.884;12.534;2023-05-20T01:11:22;13.25;;;4.43;;
33413;SDS011;60055;41.884;12.534;2023-05-20T01:13:56;12.40;;;4.57;;
33413;SDS011;60055;41.884;12.534;2023-05-20T01:16:26;19.35;;;4.50;;
33413;SDS011;60055;41.884;12.534;2023-05-20T01:18:54;12.93;;;4.55;;
33413;SDS011;60055;41.884;12.534;2023-05-20T01:21:21;16.25;;;4.05;;
33413;SDS011;60055;41.884;12.534;2023-05-20T01:23:47;12.07;;;4.50;;
33413;SDS011;60055;41.884;12.534;2023-05-20T01:26:13;14.18;;;4.75;;
33413;SDS011;60055;41.884;12.534;2023-05-20T01:28:39;13.35;;;4.30;;
33413;SDS011;60055;41.884;12.534;2023-05-20T01:31:10;13.43;;;4.60;;
33413;SDS011;60055;41.884;12.534;2023-05-20T01:33:43;11.88;;;4.07;;
33413;SDS011;60055;41.884;12.534;2023-05-20T01:36:09;12.02;;;3.83;;
33413;SDS011;60055;41.884;12.534;2023-05-20T01:38:36;11.57;;;4.15;;
33413;SDS011;60055;41.884;12.534;2023-05-20T01:41:04;11.02;;;4.45;;
33413;SDS011;60055;41.884;12.534;2023-05-20T01:43:31;10.35;;;4.32;;
33413;SDS011;60055;41.884;12.534;2023-05-20T01:45:57;18.40;;;4.78;;
33413;SDS011;60055;41.884;12.534;2023-05-20T01:48:22;14.70;;;4.45;;
33413;SDS011;60055;41.884;12.534;2023-05-20T01:50:48;9.95;;;4.47;;
33413;SDS011;60055;41.884;12.534;2023-05-20T01:53:13;13.02;;;4.30;;
33413;SDS011;60055;41.884;12.534;2023-05-20T01:55:38;15.40;;;4.47;;
33413;SDS011;60055;41.884;12.534;2023-05-20T01:58:04;14.30;;;4.97;;
33413;SDS011;60055;41.884;12.534;2023-05-20T02:00:30;14.27;;;4.43;;
33413;SDS011;60055;41.884;12.534;2023-05-20T02:02:57;11.23;;;4.28;;
33413;SDS011;60055;41.884;12.534;2023-05-20T02:05:23;17.92;;;3.92;;
33413;SDS011;60055;41.884;12.534;2023-05-20T02:07:48;10.10;;;3.85;;
33413;SDS011;60055;41.884;12.534;2023-05-20T02:10:14;13.82;;;4.22;;
33413;SDS011;60055;41.884;12.534;2023-05-20T02:12:39;9.77;;;3.65;;
33413;SDS011;60055;41.884;12.534;2023-05-20T02:15:05;13.65;;;3.90;;
33413;SDS011;60055;41.884;12.534;2023-05-20T02:17:31;11.02;;;4.05;;
33413;SDS011;60055;41.884;12.534;2023-05-20T02:19:56;11.55;;;3.85;;
33413;SDS011;60055;41.884;12.534;2023-05-20T02:22:22;10.70;;;3.70;;
33413;SDS011;60055;41.884;12.534;2023-05-20T02:24:48;8.40;;;3.85;;
33413;SDS011;60055;41.884;12.534;2023-05-20T02:27:13;13.13;;;4.15;;
33413;SDS011;60055;41.884;12.534;2023-05-20T02:29:38;11.23;;;3.65;;
33413;SDS011;60055;41.884;12.534;2023-05-20T02:32:04;10.18;;;4.00;;
33413;SDS011;60055;41.884;12.534;2023-05-20T02:34:31;13.13;;;3.90;;
33413;SDS011;60055;41.884;12.534;2023-05-20T02:36:57;11.43;;;3.55;;
33413;SDS011;60055;41.884;12.534;2023-05-20T02:39:22;8.60;;;3.65;;
33413;SDS011;60055;41.884;12.534;2023-05-20T02:41:48;12.68;;;4.20;;
33413;SDS011;60055;41.884;12.534;2023-05-20T02:44:13;14.43;;;4.82;;
33413;SDS011;60055;41.884;12.534;2023-05-20T02:46:39;11.63;;;4.10;;
33413;SDS011;60055;41.884;12.534;2023-05-20T02:49:05;14.95;;;4.47;;
33413;SDS011;60055;41.884;12.534;2023-05-20T02:51:31;7.97;;;4.25;;
33413;SDS011;60055;41.884;12.534;2023-05-20T02:53:57;13.23;;;4.57;;
33413;SDS011;60055;41.884;12.534;2023-05-20T02:56:23;12.00;;;3.95;;
33413;SDS011;60055;41.884;12.534;2023-05-20T02:58:48;14.85;;;4.20;;
33413;SDS011;60055;41.884;12.534;2023-05-20T03:01:15;11.65;;;4.70;;
33413;SDS011;60055;41.884;12.534;2023-05-20T03:03:40;14.52;;;4.07;;
33413;SDS011;60055;41.884;12.534;2023-05-20T03:06:06;9.52;;;4.18;;
33413;SDS011;60055;41.884;12.534;2023-05-20T03:08:32;10.07;;;4.53;;
33413;SDS011;60055;41.884;12.534;2023-05-20T03:10:58;11.25;;;4.13;;
33413;SDS011;60055;41.884;12.534;2023-05-20T03:13:24;10.30;;;4.03;;
33413;SDS011;60055;41.884;12.534;2023-05-20T03:15:50;10.82;;;3.90;;
33413;SDS011;60055;41.884;12.534;2023-05-20T03:18:15;9.98;;;4.03;;
33413;SDS011;60055;41.884;12.534;2023-05-20T03:20:41;12.98;;;4.18;;
33413;SDS011;60055;41.884;12.534;2023-05-20T03:23:07;12.45;;;4.43;;
33413;SDS011;60055;41.884;12.534;2023-05-20T03:25:33;12.48;;;4.53;;
33413;SDS011;60055;41.884;12.534;2023-05-20T03:27:59;9.75;;;3.97;;
33413;SDS011;60055;41.884;12.534;2023-05-20T03:30:25;11.50;;;4.30;;
33413;SDS011;60055;41.884;12.534;2023-05-20T03:32:51;11.63;;;4.07;;
33413;SDS011;60055;41.884;12.534;2023-05-20T03:35:17;9.35;;;3.90;;
33413;SDS011;60055;41.884;12.534;2023-05-20T03:37:43;9.60;;;4.07;;
33413;SDS011;60055;41.884;12.534;2023-05-20T03:40:09;14.32;;;4.03;;
33413;SDS011;60055;41.884;12.534;2023-05-20T03:42:35;14.60;;;4.30;;
33413;SDS011;60055;41.884;12.534;2023-05-20T03:45:07;13.52;;;4.07;;
33413;SDS011;60055;41.884;12.534;2023-05-20T03:47:33;9.52;;;4.20;;
33413;SDS011;60055;41.884;12.534;2023-05-20T03:49:58;13.07;;;4.65;;
33413;SDS011;60055;41.884;12.534;2023-05-20T03:52:24;9.02;;;4.53;;
33413;SDS011;60055;41.884;12.534;2023-05-20T03:54:49;11.20;;;4.70;;
33413;SDS011;60055;41.884;12.534;2023-05-20T03:57:15;15.05;;;4.72;;
33413;SDS011;60055;41.884;12.534;2023-05-20T03:59:40;11.23;;;4.60;;
33413;SDS011;60055;41.884;12.534;2023-05-20T04:02:06;11.60;;;4.82;;
33413;SDS011;60055;41.884;12.534;2023-05-20T04:04:33;8.27;;;4.28;;
33413;SDS011;60055;41.884;12.534;2023-05-20T04:06:58;10.15;;;4.43;;
33413;SDS011;60055;41.884;12.534;2023-05-20T04:09:31;14.82;;;4.32;;
33413;SDS011;60055;41.884;12.534;2023-05-20T04:11:57;11.55;;;5.25;;
33413;SDS011;60055;41.884;12.534;2023-05-20T04:14:22;12.38;;;5.30;;
33413;SDS011;60055;41.884;12.534;2023-05-20T04:16:48;12.82;;;5.07;;
33413;SDS011;60055;41.884;12.534;2023-05-20T04:19:14;12.30;;;4.93;;
33413;SDS011;60055;41.884;12.534;2023-05-20T04:21:41;19.17;;;5.00;;
33413;SDS011;60055;41.884;12.534;2023-05-20T04:24:07;11.35;;;5.00;;
33413;SDS011;60055;41.884;12.534;2023-05-20T04:26:32;11.23;;;4.93;;
33413;SDS011;60055;41.884;12.534;2023-05-20T04:28:59;13.98;;;4.80;;
33413;SDS011;60055;41.884;12.534;2023-05-20T04:31:28;11.75;;;6.25;;
33413;SDS011;60055;41.884;12.534;2023-05-20T04:33:55;13.30;;;5.47;;
33413;SDS011;60055;41.884;12.534;2023-05-20T04:36:20;11.98;;;4.75;;
33413;SDS011;60055;41.884;12.534;2023-05-20T04:38:46;17.75;;;4.93;;
33413;SDS011;60055;41.884;12.534;2023-05-20T04:41:12;15.32;;;5.00;;
33413;SDS011;60055;41.884;12.534;2023-05-20T04:43:37;13.50;;;4.95;;
33413;SDS011;60055;41.884;12.534;2023-05-20T04:46:04;15.27;;;5.18;;
33413;SDS011;60055;41.884;12.534;2023-05-20T04:48:32;15.27;;;5.22;;
33413;SDS011;60055;41.884;12.534;2023-05-20T04:50:58;16.55;;;5.75;;
33413;SDS011;60055;41.884;12.534;2023-05-20T04:53:23;18.70;;;5.18;;
33413;SDS011;60055;41.884;12.534;2023-05-20T04:55:49;13.27;;;5.00;;
33413;SDS011;60055;41.884;12.534;2023-05-20T04:58:18;12.05;;;4.80;;
33413;SDS011;60055;41.884;12.534;2023-05-20T05:00:48;15.55;;;5.30;;
33413;SDS011;60055;41.884;12.534;2023-05-20T05:03:13;15.73;;;6.45;;
33413;SDS011;60055;41.884;12.534;2023-05-20T05:05:39;13.35;;;4.82;;
33413;SDS011;60055;41.884;12.534;2023-05-20T05:08:06;16.60;;;5.18;;
33413;SDS011;60055;41.884;12.534;2023-05-20T05:10:33;14.95;;;5.32;;
33413;SDS011;60055;41.884;12.534;2023-05-20T05:12:59;12.05;;;4.70;;
33413;SDS011;60055;41.884;12.534;2023-05-20T05:15:25;10.82;;;4.35;;
33413;SDS011;60055;41.884;12.534;2023-05-20T05:17:51;14.32;;;4.45;;
33413;SDS011;60055;41.884;12.534;2023-05-20T05:20:17;13.93;;;4.53;;
33413;SDS011;60055;41.884;12.534;2023-05-20T05:22:43;12.75;;;4.45;;
33413;SDS011;60055;41.884;12.534;2023-05-20T05:25:09;11.95;;;4.90;;
33413;SDS011;60055;41.884;12.534;2023-05-20T05:27:35;9.05;;;4.10;;
33413;SDS011;60055;41.884;12.534;2023-05-20T05:30:04;13.60;;;4.18;;
33413;SDS011;60055;41.884;12.534;2023-05-20T05:32:31;11.50;;;4.20;;
33413;SDS011;60055;41.884;12.534;2023-05-20T05:34:57;8.93;;;3.80;;
33413;SDS011;60055;41.884;12.534;2023-05-20T05:37:23;13.98;;;3.72;;
33413;SDS011;60055;41.884;12.534;2023-05-20T05:39:49;9.27;;;3.67;;
33413;SDS011;60055;41.884;12.534;2023-05-20T05:42:15;13.63;;;3.67;;
33413;SDS011;60055;41.884;12.534;2023-05-20T05:44:40;13.05;;;3.83;;
33413;SDS011;60055;41.884;12.534;2023-05-20T05:47:06;11.48;;;3.58;;
33413;SDS011;60055;41.884;12.534;2023-05-20T05:49:34;13.27;;;3.28;;
33413;SDS011;60055;41.884;12.534;2023-05-20T05:52:00;9.27;;;3.67;;
33413;SDS011;60055;41.884;12.534;2023-05-20T05:54:26;11.27;;;3.80;;
33413;SDS011;60055;41.884;12.534;2023-05-20T05:56:51;10.30;;;3.50;;
33413;SDS011;60055;41.884;12.534;2023-05-20T05:59:18;9.77;;;3.65;;
33413;SDS011;60055;41.884;12.534;2023-05-20T06:01:44;10.25;;;3.40;;
33413;SDS011;60055;41.884;12.534;2023-05-20T06:04:17;10.55;;;3.00;;
33413;SDS011;60055;41.884;12.534;2023-05-20T06:06:42;9.07;;;3.35;;
33413;SDS011;60055;41.884;12.534;2023-05-20T06:09:08;9.85;;;3.47;;
33413;SDS011;60055;41.884;12.534;2023-05-20T06:11:34;10.70;;;3.53;;
33413;SDS011;60055;41.884;12.534;2023-05-20T06:14:00;8.80;;;3.45;;
33413;SDS011;60055;41.884;12.534;2023-05-20T06:16:25;8.85;;;3.20;;
33413;SDS011;60055;41.884;12.534;2023-05-20T06:18:51;12.73;;;3.58;;
33413;SDS011;60055;41.884;12.534;2023-05-20T06:21:21;8.55;;;3.20;;
33413;SDS011;60055;41.884;12.534;2023-05-20T06:23:47;10.93;;;3.28;;
33413;SDS011;60055;41.884;12.534;2023-05-20T06:26:13;9.98;;;3.15;;
33413;SDS011;60055;41.884;12.534;2023-05-20T06:28:38;12.85;;;3.45;;
33413;SDS011;60055;41.884;12.534;2023-05-20T06:31:04;11.00;;;3.30;;
33413;SDS011;60055;41.884;12.534;2023-05-20T06:33:30;13.73;;;3.38;;
33413;SDS011;60055;41.884;12.534;2023-05-20T06:35:55;9.23;;;3.30;;
33413;SDS011;60055;41.884;12.534;2023-05-20T06:38:22;12.80;;;3.20;;
33413;SDS011;60055;41.884;12.534;2023-05-20T06:40:47;10.50;;;3.08;;
33413;SDS011;60055;41.884;12.534;2023-05-20T06:43:16;8.00;;;3.22;;
33413;SDS011;60055;41.884;12.534;2023-05-20T06:45:42;9.02;;;3.28;;
33413;SDS011;60055;41.884;12.534;2023-05-20T06:48:08;16.70;;;3.55;;
33413;SDS011;60055;41.884;12.534;2023-05-20T06:50:34;10.70;;;3.63;;
33413;SDS011;60055;41.884;12.534;2023-05-20T06:52:59;11.05;;;3.63;;
33413;SDS011;60055;41.884;12.534;2023-05-20T06:55:25;14.07;;;3.58;;
33413;SDS011;60055;41.884;12.534;2023-05-20T06:57:51;14.55;;;3.60;;
33413;SDS011;60055;41.884;12.534;2023-05-20T07:00:16;9.95;;;3.33;;
33413;SDS011;60055;41.884;12.534;2023-05-20T07:02:42;12.55;;;3.83;;
33413;SDS011;60055;41.884;12.534;2023-05-20T07:05:08;19.45;;;3.63;;
33413;SDS011;60055;41.884;12.534;2023-05-20T07:07:34;10.70;;;3.58;;
33413;SDS011;60055;41.884;12.534;2023-05-20T07:09:59;15.02;;;4.07;;
33413;SDS011;60055;41.884;12.534;2023-05-20T07:12:24;13.60;;;3.88;;
33413;SDS011;60055;41.884;12.534;2023-05-20T07:14:50;18.92;;;4.10;;
33413;SDS011;60055;41.884;12.534;2023-05-20T07:17:15;13.63;;;4.20;;
33413;SDS011;60055;41.884;12.534;2023-05-20T07:19:41;15.63;;;4.32;;
33413;SDS011;60055;41.884;12.534;2023-05-20T07:22:07;12.05;;;3.67;;
33413;SDS011;60055;41.884;12.534;2023-05-20T07:24:32;14.40;;;3.75;;
33413;SDS011;60055;41.884;12.534;2023-05-20T07:26:58;12.80;;;3.88;;
33413;SDS011;60055;41.884;12.534;2023-05-20T07:29:23;12.32;;;4.05;;
33413;SDS011;60055;41.884;12.534;2023-05-20T07:31:49;9.95;;;3.97;;
33413;SDS011;60055;41.884;12.534;2023-05-20T07:34:25;16.90;;;3.55;;
33413;SDS011;60055;41.884;12.534;2023-05-20T07:36:51;11.13;;;3.38;;
33413;SDS011;60055;41.884;12.534;2023-05-20T07:39:17;12.63;;;4.10;;
33413;SDS011;60055;41.884;12.534;2023-05-20T07:41:46;11.35;;;4.22;;
33413;SDS011;60055;41.884;12.534;2023-05-20T07:44:12;11.63;;;3.38;;
33413;SDS011;60055;41.884;12.534;2023-05-20T07:46:37;12.00;;;3.78;;
33413;SDS011;60055;41.884;12.534;2023-05-20T07:49:03;10.10;;;4.10;;
33413;SDS011;60055;41.884;12.534;2023-05-20T07:51:29;11.77;;;3.75;;
33413;SDS011;60055;41.884;12.534;2023-05-20T07:53:55;8.90;;;3.90;;
33413;SDS011;60055;41.884;12.534;2023-05-20T07:56:21;10.57;;;4.00;;
33413;SDS011;60055;41.884;12.534;2023-05-20T07:58:53;9.90;;;4.25;;
33413;SDS011;60055;41.884;12.534;2023-05-20T08:01:23;10.05;;;4.00;;
33413;SDS011;60055;41.884;12.534;2023-05-20T08:03:49;15.25;;;4.40;;
33413;SDS011;60055;41.884;12.534;2023-05-20T08:06:14;7.68;;;3.97;;
33413;SDS011;60055;41.884;12.534;2023-05-20T08:08:41;16.58;;;4.70;;
33413;SDS011;60055;41.884;12.534;2023-05-20T08:11:07;17.85;;;4.72;;
33413;SDS011;60055;41.884;12.534;2023-05-20T08:13:34;14.38;;;4.70;;
33413;SDS011;60055;41.884;12.534;2023-05-20T08:15:59;15.25;;;4.50;;
33413;SDS011;60055;41.884;12.534;2023-05-20T08:18:25;13.70;;;4.72;;
33413;SDS011;60055;41.884;12.534;2023-05-20T08:20:51;12.38;;;4.28;;
33413;SDS011;60055;41.884;12.534;2023-05-20T08:23:17;15.20;;;5.10;;
33413;SDS011;60055;41.884;12.534;2023-05-20T08:25:45;15.65;;;4.40;;
33413;SDS011;60055;41.884;12.534;2023-05-20T08:28:12;16.35;;;4.38;;
33413;SDS011;60055;41.884;12.534;2023-05-20T08:30:38;13.00;;;4.47;;
33413;SDS011;60055;41.884;12.534;2023-05-20T08:33:03;19.10;;;4.57;;
33413;SDS011;60055;41.884;12.534;2023-05-20T08:35:29;16.08;;;4.30;;
33413;SDS011;60055;41.884;12.534;2023-05-20T08:37:58;14.57;;;4.22;;
33413;SDS011;60055;41.884;12.534;2023-05-20T08:40:35;15.55;;;3.90;;
33413;SDS011;60055;41.884;12.534;2023-05-20T08:43:01;19.38;;;4.10;;
33413;SDS011;60055;41.884;12.534;2023-05-20T08:45:27;19.08;;;3.90;;
33413;SDS011;60055;41.884;12.534;2023-05-20T08:47:58;14.68;;;4.10;;
33413;SDS011;60055;41.884;12.534;2023-05-20T08:50:25;15.43;;;4.40;;
33413;SDS011;60055;41.884;12.534;2023-05-20T08:52:50;21.10;;;4.60;;
33413;SDS011;60055;41.884;12.534;2023-05-20T08:55:17;20.45;;;3.90;;
33413;SDS011;60055;41.884;12.534;2023-05-20T08:57:49;21.27;;;4.30;;
33413;SDS011;60055;41.884;12.534;2023-05-20T09:00:15;18.48;;;4.38;;
33413;SDS011;60055;41.884;12.534;2023-05-20T09:02:43;20.33;;;4.13;;
33413;SDS011;60055;41.884;12.534;2023-05-20T09:05:10;12.20;;;4.18;;
33413;SDS011;60055;41.884;12.534;2023-05-20T09:07:35;18.50;;;4.15;;
33413;SDS011;60055;41.884;12.534;2023-05-20T09:10:01;18.67;;;4.60;;
33413;SDS011;60055;41.884;12.534;2023-05-20T09:12:27;19.08;;;4.60;;
33413;SDS011;60055;41.884;12.534;2023-05-20T09:14:53;20.17;;;4.80;;
33413;SDS011;60055;41.884;12.534;2023-05-20T09:17:20;19.10;;;4.78;;
33413;SDS011;60055;41.884;12.534;2023-05-20T09:19:48;22.00;;;4.68;;
33413;SDS011;60055;41.884;12.534;2023-05-20T09:22:20;21.63;;;4.97;;
33413;SDS011;60055;41.884;12.534;2023-05-20T09:24:47;18.33;;;4.28;;
33413;SDS011;60055;41.884;12.534;2023-05-20T09:27:12;17.40;;;3.90;;
33413;SDS011;60055;41.884;12.534;2023-05-20T09:29:38;17.00;;;4.20;;
33413;SDS011;60055;41.884;12.534;2023-05-20T09:32:03;19.73;;;4.53;;
33413;SDS011;60055;41.884;12.534;2023-05-20T09:34:29;16.65;;;4.25;;
33413;SDS011;60055;41.884;12.534;2023-05-20T09:36:55;25.20;;;5.25;;
33413;SDS011;60055;41.884;12.534;2023-05-20T09:39:24;20.70;;;5.00;;
33413;SDS011;60055;41.884;12.534;2023-05-20T09:41:55;23.63;;;5.47;;
33413;SDS011;60055;41.884;12.534;2023-05-20T09:44:26;21.52;;;5.32;;
33413;SDS011;60055;41.884;12.534;2023-05-20T09:46:54;19.95;;;5.20;;
33413;SDS011;60055;41.884;12.534;2023-05-20T09:49:20;23.45;;;5.53;;
33413;SDS011;60055;41.884;12.534;2023-05-20T09:51:47;18.67;;;5.72;;
33413;SDS011;60055;41.884;12.534;2023-05-20T09:54:13;16.45;;;4.40;;
33413;SDS011;60055;41.884;12.534;2023-05-20T09:56:41;16.38;;;4.85;;
33413;SDS011;60055;41.884;12.534;2023-05-20T09:59:07;16.17;;;4.60;;
33413;SDS011;60055;41.884;12.534;2023-05-20T10:01:34;19.02;;;4.55;;
33413;SDS011;60055;41.884;12.534;2023-05-20T10:04:00;19.50;;;4.85;;
33413;SDS011;60055;41.884;12.534;2023-05-20T10:06:56;14.65;;;5.28;;
33413;SDS011;60055;41.884;12.534;2023-05-20T10:15:56;20.75;;;4.55;;
33413;SDS011;60055;41.884;12.534;2023-05-20T10:20:55;14.70;;;3.80;;
33413;SDS011;60055;41.884;12.534;2023-05-20T10:23:26;12.63;;;3.72;;
33413;SDS011;60055;41.884;12.534;2023-05-20T10:25:54;19.33;;;3.90;;
33413;SDS011;60055;41.884;12.534;2023-05-20T10:28:30;15.02;;;3.55;;
33413;SDS011;60055;41.884;12.534;2023-05-20T10:30:57;15.98;;;4.07;;
33413;SDS011;60055;41.884;12.534;2023-05-20T10:33:24;15.40;;;3.83;;
33413;SDS011;60055;41.884;12.534;2023-05-20T10:35:52;13.07;;;3.90;;
33413;SDS011;60055;41.884;12.534;2023-05-20T10:38:18;12.60;;;3.83;;
33413;SDS011;60055;41.884;12.534;2023-05-20T10:40:47;16.23;;;4.40;;
33413;SDS011;60055;41.884;12.534;2023-05-20T10:43:16;13.27;;;3.83;;
33413;SDS011;60055;41.884;12.534;2023-05-20T10:45:53;13.18;;;3.40;;
33413;SDS011;60055;41.884;12.534;2023-05-20T10:48:25;12.52;;;3.30;;
33413;SDS011;60055;41.884;12.534;2023-05-20T10:50:54;12.38;;;3.75;;
33413;SDS011;60055;41.884;12.534;2023-05-20T10:53:21;13.18;;;3.70;;
33413;SDS011;60055;41.884;12.534;2023-05-20T10:55:49;12.77;;;3.70;;
33413;SDS011;60055;41.884;12.534;2023-05-20T10:58:16;13.23;;;3.97;;
33413;SDS011;60055;41.884;12.534;2023-05-20T11:00:43;14.48;;;3.90;;
33413;SDS011;60055;41.884;12.534;2023-05-20T11:03:08;15.00;;;3.88;;
33413;SDS011;60055;41.884;12.534;2023-05-20T11:05:38;17.20;;;4.38;;
33413;SDS011;60055;41.884;12.534;2023-05-20T11:08:09;14.50;;;4.50;;
33413;SDS011;60055;41.884;12.534;2023-05-20T11:10:37;19.67;;;4.95;;
33413;SDS011;60055;41.884;12.534;2023-05-20T11:13:11;20.35;;;5.70;;
33413;SDS011;60055;41.884;12.534;2023-05-20T11:15:38;18.90;;;5.20;;
33413;SDS011;60055;41.884;12.534;2023-05-20T11:20:44;27.00;;;6.75;;
33413;SDS011;60055;41.884;12.534;2023-05-20T11:23:13;20.83;;;5.32;;
33413;SDS011;60055;41.884;12.534;2023-05-20T11:25:39;20.35;;;4.55;;
33413;SDS011;60055;41.884;12.534;2023-05-20T11:31:02;15.32;;;3.35;;
33413;SDS011;60055;41.884;12.534;2023-05-20T11:33:28;16.88;;;3.72;;
33413;SDS011;60055;41.884;12.534;2023-05-20T11:35:57;15.60;;;4.25;;
33413;SDS011;60055;41.884;12.534;2023-05-20T11:38:23;13.40;;;4.38;;
33413;SDS011;60055;41.884;12.534;2023-05-20T11:41:01;13.13;;;4.07;;
33413;SDS011;60055;41.884;12.534;2023-05-20T11:43:26;22.42;;;4.82;;
33413;SDS011;60055;41.884;12.534;2023-05-20T11:45:53;17.17;;;4.88;;
33413;SDS011;60055;41.884;12.534;2023-05-20T11:48:20;19.45;;;4.22;;
33413;SDS011;60055;41.884;12.534;2023-05-20T11:50:48;20.38;;;4.38;;
33413;SDS011;60055;41.884;12.534;2023-05-20T11:53:17;17.80;;;4.35;;
33413;SDS011;60055;41.884;12.534;2023-05-20T11:55:44;13.68;;;4.00;;
33413;SDS011;60055;41.884;12.534;2023-05-20T11:58:10;19.55;;;4.57;;
33413;SDS011;60055;41.884;12.534;2023-05-20T12:00:39;19.85;;;4.40;;
33413;SDS011;60055;41.884;12.534;2023-05-20T12:03:05;20.55;;;6.30;;
33413;SDS011;60055;41.884;12.534;2023-05-20T12:05:30;18.85;;;3.85;;
33413;SDS011;60055;41.884;12.534;2023-05-20T12:07:56;17.40;;;4.20;;
33413;SDS011;60055;41.884;12.534;2023-05-20T12:10:21;18.35;;;3.92;;
33413;SDS011;60055;41.884;12.534;2023-05-20T12:13:09;17.15;;;3.90;;
33413;SDS011;60055;41.884;12.534;2023-05-20T12:15:35;15.98;;;3.78;;
33413;SDS011;60055;41.884;12.534;2023-05-20T12:18:01;21.05;;;4.40;;
33413;SDS011;60055;41.884;12.534;2023-05-20T12:20:26;19.38;;;3.70;;
33413;SDS011;60055;41.884;12.534;2023-05-20T12:22:58;20.15;;;4.38;;
33413;SDS011;60055;41.884;12.534;2023-05-20T12:25:25;16.35;;;3.70;;
33413;SDS011;60055;41.884;12.534;2023-05-20T12:27:51;23.02;;;4.80;;
33413;SDS011;60055;41.884;12.534;2023-05-20T12:30:18;14.27;;;3.75;;
33413;SDS011;60055;41.884;12.534;2023-05-20T12:32:44;28.92;;;5.03;;
33413;SDS011;60055;41.884;12.534;2023-05-20T12:35:11;17.02;;;4.50;;
33413;SDS011;60055;41.884;12.534;2023-05-20T12:37:40;18.35;;;4.40;;
33413;SDS011;60055;41.884;12.534;2023-05-20T12:40:07;22.50;;;4.53;;
33413;SDS011;60055;41.884;12.534;2023-05-20T12:42:37;19.15;;;4.28;;
33413;SDS011;60055;41.884;12.534;2023-05-20T12:45:06;17.90;;;4.28;;
33413;SDS011;60055;41.884;12.534;2023-05-20T12:47:33;19.05;;;4.28;;
33413;SDS011;60055;41.884;12.534;2023-05-20T12:49:59;22.67;;;4.72;;
33413;SDS011;60055;41.884;12.534;2023-05-20T12:52:34;18.90;;;4.07;;
33413;SDS011;60055;41.884;12.534;2023-05-20T12:54:59;14.55;;;4.20;;
33413;SDS011;60055;41.884;12.534;2023-05-20T12:57:25;20.65;;;4.70;;
33413;SDS011;60055;41.884;12.534;2023-05-20T13:00:05;19.90;;;4.50;;
33413;SDS011;60055;41.884;12.534;2023-05-20T13:02:41;17.65;;;4.30;;
33413;SDS011;60055;41.884;12.534;2023-05-20T13:05:30;25.48;;;5.03;;
33413;SDS011;60055;41.884;12.534;2023-05-20T13:07:56;18.92;;;4.65;;
33413;SDS011;60055;41.884;12.534;2023-05-20T13:10:52;19.98;;;4.55;;
33413;SDS011;60055;41.884;12.534;2023-05-20T13:13:26;19.52;;;4.75;;
33413;SDS011;60055;41.884;12.534;2023-05-20T13:15:53;21.20;;;5.43;;
33413;SDS011;60055;41.884;12.534;2023-05-20T13:18:18;20.80;;;4.60;;
33413;SDS011;60055;41.884;12.534;2023-05-20T13:20:44;21.77;;;4.60;;
33413;SDS011;60055;41.884;12.534;2023-05-20T13:23:16;19.15;;;4.60;;
33413;SDS011;60055;41.884;12.534;2023-05-20T13:25:41;16.35;;;3.88;;
33413;SDS011;60055;41.884;12.534;2023-05-20T13:28:08;15.88;;;4.38;;
33413;SDS011;60055;41.884;12.534;2023-05-20T13:30:34;14.98;;;4.05;;
33413;SDS011;60055;41.884;12.534;2023-05-20T13:32:59;20.10;;;3.92;;
33413;SDS011;60055;41.884;12.534;2023-05-20T13:35:25;14.48;;;4.00;;
33413;SDS011;60055;41.884;12.534;2023-05-20T13:37:50;17.73;;;4.03;;
33413;SDS011;60055;41.884;12.534;2023-05-20T13:40:16;16.60;;;4.03;;
33413;SDS011;60055;41.884;12.534;2023-05-20T13:42:41;16.75;;;3.83;;
33413;SDS011;60055;41.884;12.534;2023-05-20T13:45:08;11.25;;;3.28;;
33413;SDS011;60055;41.884;12.534;2023-05-20T13:47:34;16.75;;;3.85;;
33413;SDS011;60055;41.884;12.534;2023-05-20T13:50:10;13.10;;;3.72;;
33413;SDS011;60055;41.884;12.534;2023-05-20T13:56:00;12.15;;;3.13;;
33413;SDS011;60055;41.884;12.534;2023-05-20T14:01:12;15.55;;;3.80;;
33413;SDS011;60055;41.884;12.534;2023-05-20T14:03:39;18.05;;;3.40;;
33413;SDS011;60055;41.884;12.534;2023-05-20T14:06:05;15.18;;;3.53;;
33413;SDS011;60055;41.884;12.534;2023-05-20T14:08:37;18.13;;;3.40;;
33413;SDS011;60055;41.884;12.534;2023-05-20T14:11:03;17.58;;;3.28;;
33413;SDS011;60055;41.884;12.534;2023-05-20T14:13:34;13.48;;;3.67;;
33413;SDS011;60055;41.884;12.534;2023-05-20T14:16:00;19.25;;;3.33;;
33413;SDS011;60055;41.884;12.534;2023-05-20T14:18:29;12.35;;;3.70;;
33413;SDS011;60055;41.884;12.534;2023-05-20T14:20:54;14.25;;;3.95;;
33413;SDS011;60055;41.884;12.534;2023-05-20T14:23:20;14.75;;;3.78;;
33413;SDS011;60055;41.884;12.534;2023-05-20T14:25:46;15.68;;;3.95;;
33413;SDS011;60055;41.884;12.534;2023-05-20T14:28:11;15.07;;;3.60;;
33413;SDS011;60055;41.884;12.534;2023-05-20T14:30:37;13.07;;;3.70;;
33413;SDS011;60055;41.884;12.534;2023-05-20T14:33:02;16.13;;;3.50;;
33413;SDS011;60055;41.884;12.534;2023-05-20T14:35:28;13.05;;;3.78;;
33413;SDS011;60055;41.884;12.534;2023-05-20T14:37:54;18.08;;;3.40;;
33413;SDS011;60055;41.884;12.534;2023-05-20T14:40:19;15.05;;;3.80;;
33413;SDS011;60055;41.884;12.534;2023-05-20T14:42:45;11.82;;;3.67;;